createdAt,value
2019-04-21T00:01:00.376Z,2.80
2019-04-21T00:03:34.726Z,2.73
2019-04-21T00:06:18.643Z,2.83
2019-04-21T00:09:04.298Z,2.93
2019-04-21T00:11:18.450Z,2.50
2019-04-21T00:13:38.070Z,2.70
2019-04-21T00:15:59.218Z,2.70
2019-04-21T00:19:03.268Z,2.50
2019-04-21T00:21:34.357Z,2.63
2019-04-21T00:24:24.278Z,2.50
2019-04-21T00:27:01.150Z,2.00
2019-04-21T00:29:34.266Z,3.03
2019-04-21T00:31:56.647Z,2.90
2019-04-21T00:34:09.183Z,2.63
2019-04-21T00:36:47.820Z,2.60
2019-04-21T00:39:39.588Z,2.80
2019-04-21T00:42:00.912Z,2.60
2019-04-21T00:44:21.450Z,2.83
2019-04-21T00:47:03.032Z,2.70
2019-04-21T00:49:34.311Z,2.80
2019-04-21T00:52:46.171Z,2.10
2019-04-21T00:55:14.094Z,2.97
2019-04-21T00:57:41.270Z,2.80
2019-04-21T01:00:07.303Z,3.00
2019-04-21T01:02:40.217Z,2.90
2019-04-21T01:05:15.143Z,2.80
2019-04-21T01:07:35.810Z,2.53
2019-04-21T01:09:58.686Z,2.10
2019-04-21T01:12:37.696Z,2.50
2019-04-21T01:15:09.194Z,3.00
2019-04-21T01:17:37.850Z,2.70
2019-04-21T01:20:00.088Z,2.60
2019-04-21T01:22:12.042Z,2.13
2019-04-21T01:24:43.349Z,2.30
2019-04-21T01:27:18.518Z,2.63
2019-04-21T01:29:59.738Z,2.40
2019-04-21T01:32:29.220Z,2.47
2019-04-21T01:34:58.214Z,2.67
2019-04-21T01:37:38.620Z,2.43
2019-04-21T01:40:04.714Z,2.80
2019-04-21T01:42:25.623Z,2.70
2019-04-21T01:44:59.478Z,3.03
2019-04-21T01:47:20.121Z,2.30
2019-04-21T01:49:47.461Z,2.67
2019-04-21T01:55:07.398Z,2.33
2019-04-21T01:57:49.431Z,2.30
2019-04-21T02:00:18.977Z,2.30
2019-04-21T02:02:59.355Z,2.53
2019-04-21T02:05:34.629Z,2.97
2019-04-21T02:07:55.932Z,2.60
2019-04-21T02:10:37.289Z,3.20
2019-04-21T02:12:56.533Z,2.47
2019-04-21T02:15:30.901Z,2.87
2019-04-21T02:17:54.014Z,2.67
2019-04-21T02:20:18.843Z,2.37
2019-04-21T02:23:12.909Z,2.40
2019-04-21T02:25:26.091Z,2.50
2019-04-21T02:28:01.224Z,2.30
2019-04-21T02:30:43.042Z,2.30
2019-04-21T02:33:30.089Z,2.43
2019-04-21T02:35:46.450Z,2.73
2019-04-21T02:40:38.525Z,2.47
2019-04-21T02:50:53.002Z,2.60
2019-04-21T02:55:28.959Z,3.53
2019-04-21T02:58:08.057Z,2.90
2019-04-21T03:03:19.921Z,2.20
2019-04-21T03:06:24.280Z,2.80
2019-04-21T03:08:44.872Z,2.63
2019-04-21T03:11:09.086Z,2.90
2019-04-21T03:13:41.085Z,2.30
2019-04-21T03:16:20.194Z,2.17
2019-04-21T03:18:42.043Z,2.40
2019-04-21T03:21:13.347Z,2.50
2019-04-21T03:23:46.043Z,2.73
2019-04-21T03:26:10.262Z,2.20
2019-04-21T03:34:18.302Z,2.37
2019-04-21T03:38:37.618Z,2.63
2019-04-21T03:41:04.167Z,2.67
2019-04-21T03:43:40.045Z,2.70
2019-04-21T03:46:01.292Z,2.80
2019-04-21T03:48:36.142Z,2.80
2019-04-21T03:51:09.412Z,2.90
2019-04-21T04:01:35.173Z,2.30
2019-04-21T04:06:55.721Z,2.43
2019-04-21T04:11:53.066Z,2.23
2019-04-21T04:14:22.838Z,3.30
2019-04-21T04:17:04.792Z,2.73
2019-04-21T04:19:26.458Z,2.53
2019-04-21T04:21:56.437Z,3.07
2019-04-21T04:24:33.979Z,2.93
2019-04-21T04:29:22.547Z,2.90
2019-04-21T04:31:43.347Z,2.83
2019-04-21T04:34:21.937Z,3.20
2019-04-21T04:40:02.917Z,2.97
2019-04-21T04:42:48.794Z,2.47
2019-04-21T04:47:32.791Z,2.80
2019-04-21T04:50:22.680Z,2.87
2019-04-21T04:52:45.697Z,2.40
2019-04-21T04:55:08.502Z,3.10
2019-04-21T05:00:15.499Z,2.40
2019-04-21T05:05:15.626Z,2.53
2019-04-21T05:07:52.449Z,3.17
2019-04-21T05:10:18.253Z,2.60
2019-04-21T05:12:32.531Z,2.57
2019-04-21T05:14:59.397Z,2.67
2019-04-21T05:17:37.913Z,3.57
2019-04-21T05:24:49.285Z,3.00
2019-04-21T05:27:33.562Z,2.70
2019-04-21T05:30:20.698Z,2.57
2019-04-21T05:33:03.665Z,2.97
2019-04-21T05:36:03.085Z,3.00
2019-04-21T05:38:53.086Z,3.40
2019-04-21T05:41:15.578Z,3.07
2019-04-21T05:43:57.486Z,2.63
2019-04-21T05:46:27.045Z,2.90
2019-04-21T05:49:00.923Z,2.77
2019-04-21T05:51:25.323Z,2.63
2019-04-21T05:53:56.141Z,3.57
2019-04-21T05:56:31.812Z,2.83
2019-04-21T05:58:57.976Z,2.93
2019-04-21T06:01:34.516Z,2.80
2019-04-21T06:04:03.976Z,2.80
2019-04-21T06:08:52.496Z,2.93
2019-04-21T06:11:25.889Z,2.83
2019-04-21T06:16:30.374Z,2.50
2019-04-21T06:21:40.502Z,2.50
2019-04-21T06:23:53.895Z,2.63
2019-04-21T06:28:51.815Z,2.70
2019-04-21T06:31:40.798Z,2.97
2019-04-21T06:34:11.197Z,2.73
2019-04-21T06:36:49.555Z,2.70
2019-04-21T06:44:01.355Z,3.10
2019-04-21T06:54:04.407Z,2.60
2019-04-21T06:56:39.712Z,2.80
2019-04-21T06:59:03.707Z,2.67
2019-04-21T07:01:33.044Z,2.60
2019-04-21T07:04:09.880Z,3.00
2019-04-21T07:06:32.486Z,2.80
2019-04-21T07:09:13.996Z,2.27
2019-04-21T07:11:25.280Z,3.13
2019-04-21T07:14:14.205Z,2.67
2019-04-21T07:16:32.123Z,2.67
2019-04-21T07:19:09.963Z,2.63
2019-04-21T07:21:30.092Z,3.00
2019-04-21T07:24:02.055Z,3.13
2019-04-21T07:26:27.987Z,3.40
2019-04-21T07:29:02.904Z,2.60
2019-04-21T07:31:28.966Z,2.77
2019-04-21T07:34:01.978Z,2.83
2019-04-21T07:36:32.271Z,3.07
2019-04-21T07:38:49.744Z,2.93
2019-04-21T07:41:15.915Z,3.20
2019-04-21T07:43:53.468Z,2.33
2019-04-21T07:46:23.758Z,2.40
2019-04-21T07:49:01.770Z,2.93
2019-04-21T07:51:59.155Z,2.70
2019-04-21T07:54:33.838Z,2.90
2019-04-21T07:56:39.897Z,3.00
2019-04-21T07:59:31.583Z,2.70
2019-04-21T08:01:56.341Z,2.80
2019-04-21T08:06:51.940Z,2.90
2019-04-21T08:09:18.239Z,2.50
2019-04-21T08:11:48.712Z,2.80
2019-04-21T08:14:23.925Z,2.37
2019-04-21T08:19:25.118Z,3.27
2019-04-21T08:21:59.884Z,2.30
2019-04-21T08:24:19.763Z,2.20
2019-04-21T08:26:51.563Z,2.70
2019-04-21T08:29:25.570Z,3.33
2019-04-21T08:31:56.266Z,3.13
2019-04-21T08:34:24.187Z,4.90
2019-04-21T08:36:51.280Z,3.73
2019-04-21T08:39:24.882Z,4.23
2019-04-21T08:41:51.239Z,4.50
2019-04-21T08:44:24.325Z,4.57
2019-04-21T08:46:55.137Z,4.93
2019-04-21T08:49:15.245Z,4.10
2019-04-21T08:51:48.469Z,3.97
2019-04-21T08:54:22.041Z,4.47
2019-04-21T08:56:54.273Z,5.23
2019-04-21T08:59:45.275Z,5.90
2019-04-21T09:02:26.311Z,4.60
2019-04-21T09:04:48.079Z,4.80
2019-04-21T09:07:20.039Z,5.47
2019-04-21T09:09:47.481Z,4.40
2019-04-21T09:12:17.772Z,4.80
2019-04-21T09:14:52.738Z,5.93
2019-04-21T09:17:14.829Z,5.13
2019-04-21T09:22:16.792Z,4.77
2019-04-21T09:24:46.979Z,4.03
2019-04-21T09:27:15.884Z,4.67
2019-04-21T09:29:37.971Z,4.30
2019-04-21T09:32:01.097Z,4.33
2019-04-21T09:34:35.910Z,4.30
2019-04-21T09:37:13.431Z,4.80
2019-04-21T09:39:29.707Z,4.33
2019-04-21T09:41:59.073Z,4.07
2019-04-21T09:44:31.476Z,4.10
2019-04-21T09:47:00.014Z,4.70
2019-04-21T09:49:29.481Z,2.67
2019-04-21T09:51:55.362Z,3.83
2019-04-21T09:54:27.804Z,3.87
2019-04-21T09:56:58.499Z,4.50
2019-04-21T09:59:28.243Z,3.57
2019-04-21T10:02:01.532Z,3.60
2019-04-21T10:04:21.331Z,3.70
2019-04-21T10:06:49.722Z,3.80
2019-04-21T10:09:20.179Z,3.90
2019-04-21T10:11:48.163Z,3.73
2019-04-21T10:14:17.563Z,3.70
2019-04-21T10:17:10.983Z,4.20
2019-04-21T10:19:39.680Z,3.77
2019-04-21T10:22:08.454Z,3.10
2019-04-21T10:24:36.501Z,2.90
2019-04-21T10:27:06.538Z,3.17
2019-04-21T10:29:34.848Z,3.30
2019-04-21T10:32:03.617Z,2.23
2019-04-21T10:34:31.497Z,2.70
2019-04-21T10:37:00.748Z,2.90
2019-04-21T10:39:29.478Z,3.13
2019-04-21T10:41:57.446Z,3.00
2019-04-21T10:44:25.218Z,3.40
2019-04-21T10:46:56.014Z,2.80
2019-04-21T10:49:24.503Z,3.00
2019-04-21T10:51:53.117Z,2.90
2019-04-21T10:54:24.065Z,4.10
2019-04-21T10:56:52.549Z,3.80
2019-04-21T10:59:20.907Z,3.20
2019-04-21T11:01:49.205Z,3.33
2019-04-21T11:04:32.307Z,3.20
2019-04-21T11:07:04.322Z,3.73
2019-04-21T11:09:26.392Z,3.60
2019-04-21T11:11:55.730Z,3.87
2019-04-21T11:14:25.183Z,3.70
2019-04-21T11:16:54.679Z,2.87
2019-04-21T11:19:22.410Z,3.20
2019-04-21T11:21:50.398Z,3.03
2019-04-21T11:24:18.176Z,3.73
2019-04-21T11:26:47.628Z,3.67
2019-04-21T11:29:17.037Z,3.40
2019-04-21T11:31:45.343Z,3.43
2019-04-21T11:34:13.512Z,3.23
2019-04-21T11:36:41.171Z,3.17
2019-04-21T11:39:27.215Z,3.47
2019-04-21T11:41:47.906Z,3.20
2019-04-21T11:44:16.309Z,3.40
2019-04-21T11:46:44.527Z,3.20
2019-04-21T11:49:14.195Z,3.40
2019-04-21T11:51:42.822Z,3.50
2019-04-21T11:54:11.011Z,2.90
2019-04-21T11:56:39.026Z,3.03
2019-04-21T11:59:07.858Z,3.03
2019-04-21T12:01:35.967Z,3.57
2019-04-21T12:04:05.400Z,3.43
2019-04-21T12:06:40.962Z,3.40
2019-04-21T12:09:06.526Z,2.60
2019-04-21T12:11:35.645Z,3.27
2019-04-21T12:14:03.795Z,2.73
2019-04-21T12:16:33.126Z,3.03
2019-04-21T12:19:00.983Z,3.67
2019-04-21T12:21:39.024Z,3.80
2019-04-21T12:23:58.543Z,3.53
2019-04-21T12:26:28.026Z,3.77
2019-04-21T12:28:57.532Z,3.73
2019-04-21T12:31:43.863Z,3.20
2019-04-21T12:34:14.107Z,3.87
2019-04-21T12:36:43.745Z,3.43
2019-04-21T12:39:12.872Z,2.97
2019-04-21T12:41:40.786Z,3.40
2019-04-21T12:44:08.809Z,3.47
2019-04-21T12:46:36.543Z,3.67
2019-04-21T12:49:05.996Z,4.27
2019-04-21T12:51:33.858Z,4.33
2019-04-21T12:54:03.756Z,4.23
2019-04-21T12:56:31.788Z,3.80
2019-04-21T12:58:59.666Z,3.60
2019-04-21T13:01:27.644Z,4.00
2019-04-21T13:03:55.844Z,3.93
2019-04-21T13:06:24.009Z,3.70
2019-04-21T13:08:59.673Z,3.60
2019-04-21T13:11:21.652Z,3.80
2019-04-21T13:13:50.191Z,4.07
2019-04-21T13:16:19.273Z,5.10
2019-04-21T13:18:47.263Z,4.47
2019-04-21T13:21:16.096Z,3.70
2019-04-21T13:23:45.082Z,3.90
2019-04-21T13:26:13.201Z,3.77
2019-04-21T13:28:42.475Z,4.27
2019-04-21T13:31:10.174Z,3.50
2019-04-21T13:33:37.829Z,3.70
2019-04-21T13:36:05.484Z,3.47
2019-04-21T13:38:42.519Z,3.67
2019-04-21T13:41:36.484Z,3.50
2019-04-21T13:44:11.076Z,3.27
2019-04-21T13:46:38.981Z,3.57
2019-04-21T13:49:07.453Z,2.80
2019-04-21T13:51:36.052Z,3.33
2019-04-21T13:54:05.527Z,3.27
2019-04-21T13:56:34.417Z,3.33
2019-04-21T13:59:02.308Z,4.87
2019-04-21T14:01:31.729Z,4.03
2019-04-21T14:03:59.636Z,4.63
2019-04-21T14:06:27.659Z,4.00
2019-04-21T14:08:55.276Z,5.13
2019-04-21T14:11:23.183Z,4.90
2019-04-21T14:13:52.237Z,4.20
2019-04-21T14:16:20.297Z,4.60
2019-04-21T14:18:49.558Z,4.60
2019-04-21T14:21:18.842Z,4.97
2019-04-21T14:23:48.973Z,11.50
2019-04-21T14:26:16.294Z,11.50
2019-04-21T14:28:45.005Z,10.77
2019-04-21T14:31:14.370Z,10.20
2019-04-21T14:33:43.691Z,9.87
2019-04-21T14:36:12.784Z,9.90
2019-04-21T14:38:40.745Z,10.30
2019-04-21T14:41:08.750Z,10.40
2019-04-21T14:43:36.594Z,10.13
2019-04-21T14:46:17.805Z,9.80
2019-04-21T14:49:05.577Z,8.13
2019-04-21T14:51:52.795Z,9.37
2019-04-21T14:54:38.776Z,8.80
2019-04-21T14:57:07.251Z,7.70
2019-04-21T14:59:35.250Z,9.70
2019-04-21T15:02:03.929Z,8.20
2019-04-21T15:04:33.365Z,8.97
2019-04-21T15:07:01.532Z,8.73
2019-04-21T15:09:29.553Z,9.60
2019-04-21T15:11:58.207Z,8.47
2019-04-21T15:14:26.285Z,6.77
2019-04-21T15:16:54.811Z,5.90
2019-04-21T15:19:22.603Z,4.47
2019-04-21T15:21:50.329Z,4.70
2019-04-21T15:24:18.383Z,4.37
2019-04-21T15:26:46.491Z,3.70
2019-04-21T15:29:15.098Z,3.77
2019-04-21T15:31:44.812Z,4.47
2019-04-21T15:34:13.194Z,4.00
2019-04-21T15:36:41.895Z,4.13
2019-04-21T15:39:09.975Z,4.20
2019-04-21T15:41:38.588Z,3.83
2019-04-21T15:44:07.835Z,3.80
2019-04-21T15:46:37.510Z,4.40
2019-04-21T15:49:05.198Z,4.33
2019-04-21T15:51:33.746Z,4.43
2019-04-21T15:54:02.635Z,3.73
2019-04-21T15:56:36.932Z,4.70
2019-04-21T15:59:16.670Z,3.60
2019-04-21T16:02:01.935Z,3.83
2019-04-21T16:04:30.695Z,4.70
2019-04-21T16:06:59.504Z,3.90
2019-04-21T16:09:29.389Z,3.40
2019-04-21T16:11:58.017Z,4.00
2019-04-21T16:14:26.920Z,3.80
2019-04-21T16:16:55.403Z,4.33
2019-04-21T16:19:23.056Z,3.53
2019-04-21T16:21:52.833Z,4.63
2019-04-21T16:24:21.255Z,4.20
2019-04-21T16:26:48.954Z,3.50
2019-04-21T16:29:17.414Z,4.23
2019-04-21T16:31:45.002Z,3.87
2019-04-21T16:34:13.657Z,4.53
2019-04-21T16:36:41.639Z,3.90
2019-04-21T16:39:09.775Z,4.17
2019-04-21T16:41:38.400Z,4.10
2019-04-21T16:44:07.217Z,4.47
2019-04-21T16:46:35.732Z,3.77
2019-04-21T16:49:04.170Z,4.80
2019-04-21T16:51:32.186Z,4.10
2019-04-21T16:54:10.104Z,4.00
2019-04-21T16:57:03.759Z,3.50
2019-04-21T16:59:36.769Z,4.00
2019-04-21T17:02:04.807Z,4.73
2019-04-21T17:04:33.977Z,4.50
2019-04-21T17:07:02.956Z,6.80
2019-04-21T17:09:30.714Z,4.70
2019-04-21T17:12:02.292Z,4.07
2019-04-21T17:14:47.697Z,4.30
2019-04-21T17:17:23.104Z,3.77
2019-04-21T17:19:31.014Z,4.20
2019-04-21T17:21:57.672Z,4.20
2019-04-21T17:24:26.452Z,3.83
2019-04-21T17:26:55.253Z,4.50
2019-04-21T17:29:22.858Z,3.60
2019-04-21T17:31:50.714Z,3.80
2019-04-21T17:34:22.927Z,3.47
2019-04-21T17:36:48.744Z,3.93
2019-04-21T17:39:16.738Z,3.90
2019-04-21T17:42:04.052Z,3.47
2019-04-21T17:44:15.083Z,3.90
2019-04-21T17:46:48.579Z,3.20
2019-04-21T17:49:12.857Z,4.13
2019-04-21T17:52:09.831Z,2.97
2019-04-21T17:54:45.313Z,3.50
2019-04-21T17:57:34.773Z,3.77
2019-04-21T18:00:04.088Z,3.30
2019-04-21T18:02:38.150Z,2.63
2019-04-21T18:05:02.372Z,3.80
2019-04-21T18:07:31.528Z,2.90
2019-04-21T18:10:14.396Z,3.10
2019-04-21T18:12:30.397Z,2.77
2019-04-21T18:14:59.188Z,3.10
2019-04-21T18:17:14.172Z,2.53
2019-04-21T18:19:46.976Z,3.00
2019-04-21T18:22:19.663Z,3.60
2019-04-21T18:24:56.916Z,3.00
2019-04-21T18:27:19.717Z,3.43
2019-04-21T18:29:50.770Z,3.23
2019-04-21T18:32:27.635Z,2.50
2019-04-21T18:35:08.840Z,2.83
2019-04-21T18:38:04.525Z,2.43
2019-04-21T18:40:31.692Z,2.73
2019-04-21T18:43:38.322Z,3.00
2019-04-21T18:46:14.859Z,3.07
2019-04-21T18:48:31.511Z,2.60
2019-04-21T18:51:18.971Z,2.70
2019-04-21T18:54:28.968Z,2.73
2019-04-21T18:56:52.286Z,3.17
2019-04-21T18:59:12.225Z,3.03
2019-04-21T19:01:45.420Z,2.83
2019-04-21T19:04:16.782Z,3.10
2019-04-21T19:06:51.924Z,2.40
2019-04-21T19:09:35.879Z,2.47
2019-04-21T19:12:05.290Z,2.57
2019-04-21T19:14:55.040Z,2.73
2019-04-21T19:17:29.153Z,3.13
2019-04-21T19:22:04.632Z,2.63
2019-04-21T19:24:48.407Z,2.60
2019-04-21T19:27:18.850Z,2.80
2019-04-21T19:29:52.136Z,2.13
2019-04-21T19:32:05.718Z,2.67
2019-04-21T19:34:18.804Z,2.30
2019-04-21T19:36:49.570Z,2.73
2019-04-21T19:39:16.283Z,2.80
2019-04-21T19:41:56.085Z,2.17
2019-04-21T19:44:26.184Z,2.50
2019-04-21T19:46:58.357Z,2.53
2019-04-21T19:49:32.385Z,2.30
2019-04-21T19:51:52.294Z,2.17
2019-04-21T19:54:20.763Z,2.43
2019-04-21T19:56:41.234Z,1.80
2019-04-21T19:59:14.043Z,2.57
2019-04-21T20:01:39.351Z,2.53
2019-04-21T20:04:08.446Z,2.20
2019-04-21T20:06:47.698Z,2.20
2019-04-21T20:09:28.297Z,2.03
2019-04-21T20:11:53.566Z,2.47
2019-04-21T20:16:53.156Z,2.20
2019-04-21T20:19:11.729Z,2.53
2019-04-21T20:21:38.819Z,3.20
2019-04-21T20:24:11.211Z,2.80
2019-04-21T20:26:41.587Z,2.67
2019-04-21T20:29:20.188Z,2.30
2019-04-21T20:31:51.180Z,2.70
2019-04-21T20:34:26.446Z,2.07
2019-04-21T20:36:57.313Z,2.40
2019-04-21T20:39:13.148Z,2.80
2019-04-21T20:41:46.776Z,2.70
2019-04-21T20:44:28.237Z,1.90
2019-04-21T20:46:53.137Z,2.20
2019-04-21T20:49:19.075Z,1.97
2019-04-21T20:51:58.166Z,2.30
2019-04-21T20:54:24.482Z,2.20
2019-04-21T20:56:49.747Z,2.53
2019-04-21T20:59:23.982Z,2.47
2019-04-21T21:01:48.944Z,2.30
2019-04-21T21:04:19.344Z,2.70
2019-04-21T21:06:46.530Z,1.90
2019-04-21T21:09:19.931Z,3.20
2019-04-21T21:12:10.899Z,2.43
2019-04-21T21:14:24.961Z,1.93
2019-04-21T21:17:01.357Z,2.43
2019-04-21T21:19:39.748Z,2.00
2019-04-21T21:21:48.640Z,2.13
2019-04-21T21:24:21.846Z,2.07
2019-04-21T21:26:55.715Z,2.80
2019-04-21T21:29:20.493Z,2.30
2019-04-21T21:31:55.659Z,2.70
2019-04-21T21:34:42.600Z,2.03
2019-04-21T21:36:50.638Z,2.30
2019-04-21T21:39:23.392Z,2.27
2019-04-21T21:41:44.145Z,2.40
2019-04-21T21:44:11.360Z,1.70
2019-04-21T21:46:49.947Z,2.20
2019-04-21T21:49:20.833Z,2.60
2019-04-21T21:51:42.991Z,1.70
2019-04-21T21:54:04.763Z,2.10
2019-04-21T21:56:32.487Z,2.13
2019-04-21T21:59:01.289Z,1.93
2019-04-21T22:01:38.077Z,2.43
2019-04-21T22:04:09.276Z,2.20
2019-04-21T22:06:40.129Z,2.13
2019-04-21T22:08:58.634Z,1.80
2019-04-21T22:11:26.626Z,1.97
2019-04-21T22:14:01.916Z,2.07
2019-04-21T22:16:39.032Z,2.07
2019-04-21T22:19:27.324Z,1.80
2019-04-21T22:21:41.627Z,1.83
2019-04-21T22:24:00.230Z,1.90
2019-04-21T22:26:23.087Z,1.80
2019-04-21T22:28:51.817Z,1.63
2019-04-21T22:31:24.562Z,1.80
2019-04-21T22:33:54.737Z,1.80
2019-04-21T22:36:33.085Z,1.40
2019-04-21T22:39:11.630Z,1.73
2019-04-21T22:41:26.296Z,2.60
2019-04-21T22:43:51.712Z,2.10
2019-04-21T22:46:18.150Z,2.20
2019-04-21T22:48:55.515Z,2.00
2019-04-21T22:51:23.994Z,2.27
2019-04-21T22:53:48.816Z,1.97
2019-04-21T22:56:20.529Z,2.43
2019-04-21T22:58:46.097Z,2.60
2019-04-21T23:01:18.978Z,2.00
2019-04-21T23:03:50.232Z,1.80
2019-04-21T23:06:19.208Z,2.20
2019-04-21T23:08:45.669Z,2.60
2019-04-21T23:11:14.626Z,2.00
2019-04-21T23:13:45.016Z,1.90
2019-04-21T23:16:14.055Z,2.07
2019-04-21T23:18:59.431Z,2.10
2019-04-21T23:21:27.814Z,2.00
2019-04-21T23:24:03.110Z,2.00
2019-04-21T23:26:34.844Z,1.73
2019-04-21T23:29:03.034Z,2.13
2019-04-21T23:31:34.422Z,1.83
2019-04-21T23:33:42.582Z,2.00
2019-04-21T23:36:15.648Z,2.10
2019-04-21T23:38:44.259Z,1.70
2019-04-21T23:41:11.220Z,2.30
2019-04-21T23:43:38.970Z,2.37
2019-04-21T23:46:19.870Z,2.00
2019-04-21T23:48:55.983Z,1.97
2019-04-21T23:51:22.554Z,1.93
2019-04-21T23:53:37.898Z,2.00
2019-04-21T23:56:08.151Z,1.80
2019-04-21T23:58:37.098Z,2.07
